createdAt,value
2023-05-05T00:00:24.078Z,91.55
2023-05-05T00:00:55.228Z,91.38
2023-05-05T00:01:25.734Z,91.55
2023-05-05T00:01:56.894Z,91.53
2023-05-05T00:02:27.423Z,91.51
2023-05-05T00:02:57.952Z,91.86
2023-05-05T00:03:28.947Z,91.94
2023-05-05T00:03:59.526Z,91.85
2023-05-05T00:04:30.292Z,91.59
2023-05-05T00:05:01.209Z,91.69
2023-05-05T00:05:32.103Z,91.53
2023-05-05T00:06:03.106Z,91.80
2023-05-05T00:06:33.634Z,91.37
2023-05-05T00:07:04.553Z,91.64
2023-05-05T00:07:35.477Z,92.14
2023-05-05T00:08:06.443Z,92.85
2023-05-05T00:08:37.310Z,92.97
2023-05-05T00:09:08.236Z,93.02
2023-05-05T00:09:39.114Z,92.93
2023-05-05T00:10:10.048Z,92.29
2023-05-05T00:10:40.580Z,92.63
2023-05-05T00:11:11.453Z,92.54
2023-05-05T00:11:42.352Z,92.66
2023-05-05T00:12:13.317Z,93.10
2023-05-05T00:12:44.286Z,92.63
2023-05-05T00:13:15.265Z,92.50
2023-05-05T00:13:45.706Z,92.14
2023-05-05T00:14:16.639Z,92.10
2023-05-05T00:14:47.577Z,91.91
2023-05-05T00:15:18.480Z,92.46
2023-05-05T00:15:49.347Z,92.61
2023-05-05T00:16:20.250Z,92.36
2023-05-05T00:16:51.132Z,92.17
2023-05-05T00:17:22.021Z,92.83
2023-05-05T00:17:53.154Z,92.46
2023-05-05T00:18:24.209Z,92.57
2023-05-05T00:18:54.717Z,93.06
2023-05-05T00:19:25.355Z,93.43
2023-05-05T00:19:55.853Z,93.23
2023-05-05T00:20:26.973Z,93.29
2023-05-05T00:20:57.456Z,92.83
2023-05-05T00:21:28.347Z,92.79
2023-05-05T00:21:59.222Z,92.82
2023-05-05T00:22:30.101Z,93.24
2023-05-05T00:23:00.987Z,93.76
2023-05-05T00:23:31.857Z,93.80
2023-05-05T00:24:02.760Z,94.17
2023-05-05T00:24:33.775Z,94.15
2023-05-05T00:25:04.307Z,94.15
2023-05-05T00:25:34.727Z,93.36
2023-05-05T00:26:05.687Z,93.65
2023-05-05T00:26:36.833Z,93.63
2023-05-05T00:27:07.364Z,93.73
2023-05-05T00:27:40.191Z,93.89
2023-05-05T00:28:08.374Z,94.30
2023-05-05T00:28:39.236Z,95.02
2023-05-05T00:29:10.110Z,94.52
2023-05-05T00:29:40.989Z,94.62
2023-05-05T00:30:11.849Z,94.12
2023-05-05T00:30:42.707Z,94.31
2023-05-05T00:31:13.706Z,94.42
2023-05-05T00:31:44.256Z,94.58
2023-05-05T00:32:15.191Z,94.43
2023-05-05T00:32:46.223Z,94.42
2023-05-05T00:33:16.666Z,93.93
2023-05-05T00:33:47.602Z,93.77
2023-05-05T00:34:18.532Z,93.67
2023-05-05T00:34:49.423Z,93.32
2023-05-05T00:35:20.303Z,93.71
2023-05-05T00:35:51.167Z,93.74
2023-05-05T00:36:22.092Z,93.58
2023-05-05T00:36:52.966Z,92.64
2023-05-05T00:37:24.009Z,92.33
2023-05-05T00:37:54.496Z,92.46
2023-05-05T00:38:25.454Z,92.27
2023-05-05T00:38:55.984Z,92.52
2023-05-05T00:39:26.906Z,92.57
2023-05-05T00:39:57.840Z,92.69
2023-05-05T00:40:28.844Z,92.58
2023-05-05T00:40:59.210Z,92.77
2023-05-05T00:41:30.104Z,93.29
2023-05-05T00:42:00.989Z,93.18
2023-05-05T00:42:31.864Z,93.59
2023-05-05T00:43:02.805Z,92.93
2023-05-05T00:43:33.256Z,93.44
2023-05-05T00:44:04.653Z,93.71
2023-05-05T00:44:35.159Z,94.07
2023-05-05T00:45:06.293Z,93.93
2023-05-05T00:45:36.809Z,94.39
2023-05-05T00:46:07.460Z,94.37
2023-05-05T00:46:38.025Z,94.49
2023-05-05T00:47:08.699Z,94.29
2023-05-05T00:47:39.236Z,94.58
2023-05-05T00:48:09.744Z,94.55
2023-05-05T00:48:40.209Z,94.07
2023-05-05T00:49:11.115Z,94.46
2023-05-05T00:49:42.005Z,94.73
2023-05-05T00:50:12.897Z,94.71
2023-05-05T00:50:43.774Z,94.78
2023-05-05T00:51:14.965Z,94.84
2023-05-05T00:51:45.476Z,95.12
2023-05-05T00:52:16.584Z,94.68
2023-05-05T00:52:47.073Z,94.52
2023-05-05T00:53:18.206Z,94.56
2023-05-05T00:53:48.751Z,94.73
2023-05-05T00:54:19.460Z,94.62
2023-05-05T00:54:49.858Z,94.51
2023-05-05T00:55:20.739Z,94.17
2023-05-05T00:55:51.619Z,94.51
2023-05-05T00:56:22.507Z,94.27
2023-05-05T00:56:53.371Z,93.96
2023-05-05T00:57:24.269Z,94.18
2023-05-05T00:57:55.207Z,93.86
2023-05-05T00:58:26.335Z,93.64
2023-05-05T00:58:56.838Z,93.77
2023-05-05T00:59:27.948Z,93.63
2023-05-05T00:59:58.467Z,93.71
2023-05-05T01:00:29.092Z,94.15
2023-05-05T01:00:59.578Z,94.02
2023-05-05T01:01:30.509Z,94.23
2023-05-05T01:02:01.459Z,94.17
2023-05-05T01:02:31.990Z,94.07
2023-05-05T01:03:02.811Z,93.73
2023-05-05T01:03:33.811Z,93.59
2023-05-05T01:04:04.785Z,94.08
2023-05-05T01:04:35.371Z,94.81
2023-05-05T01:05:05.849Z,95.18
2023-05-05T01:05:36.811Z,95.20
2023-05-05T01:06:07.769Z,95.47
2023-05-05T01:06:38.711Z,95.77
2023-05-05T01:07:09.657Z,96.22
2023-05-05T01:07:40.515Z,96.33
2023-05-05T01:08:11.386Z,96.11
2023-05-05T01:08:42.256Z,95.97
2023-05-05T01:09:13.126Z,96.15
2023-05-05T01:09:43.993Z,96.08
2023-05-05T01:10:20.287Z,96.41
2023-05-05T01:10:46.868Z,96.36
2023-05-05T01:11:16.327Z,96.17
2023-05-05T01:11:47.289Z,96.33
2023-05-05T01:12:18.215Z,96.24
2023-05-05T01:12:49.172Z,96.28
2023-05-05T01:13:20.117Z,96.28
2023-05-05T01:13:51.009Z,96.58
2023-05-05T01:14:21.883Z,96.48
2023-05-05T01:14:52.784Z,96.55
2023-05-05T01:15:23.659Z,96.80
2023-05-05T01:15:54.595Z,96.89
2023-05-05T01:16:25.520Z,96.99
2023-05-05T01:16:56.496Z,96.85
2023-05-05T01:17:27.440Z,97.03
2023-05-05T01:17:58.438Z,96.48
2023-05-05T01:18:28.911Z,96.59
2023-05-05T01:18:59.946Z,96.78
2023-05-05T01:19:30.459Z,97.05
2023-05-05T01:20:00.925Z,97.36
2023-05-05T01:20:31.789Z,97.18
2023-05-05T01:21:02.705Z,97.39
2023-05-05T01:21:33.574Z,97.30
2023-05-05T01:22:04.437Z,97.24
2023-05-05T01:22:35.309Z,97.19
2023-05-05T01:23:06.358Z,96.80
2023-05-05T01:23:36.801Z,97.05
2023-05-05T01:24:07.764Z,96.89
2023-05-05T01:24:38.691Z,97.28
2023-05-05T01:25:09.710Z,97.00
2023-05-05T01:25:40.316Z,97.10
2023-05-05T01:26:10.837Z,97.44
2023-05-05T01:26:41.219Z,97.20
2023-05-05T01:27:12.098Z,97.36
2023-05-05T01:27:43.015Z,97.44
2023-05-05T01:28:13.888Z,97.55
2023-05-05T01:28:44.743Z,97.66
2023-05-05T01:29:15.620Z,97.36
2023-05-05T01:29:46.647Z,97.43
2023-05-05T01:30:17.064Z,97.10
2023-05-05T01:30:48.070Z,97.00
2023-05-05T01:31:18.629Z,97.23
2023-05-05T01:31:49.144Z,96.95
2023-05-05T01:32:19.681Z,97.09
2023-05-05T01:32:50.213Z,96.94
2023-05-05T01:33:21.123Z,97.08
2023-05-05T01:33:52.009Z,96.92
2023-05-05T01:34:22.876Z,96.67
2023-05-05T01:34:53.772Z,97.13
2023-05-05T01:35:24.693Z,96.97
2023-05-05T01:35:55.619Z,96.64
2023-05-05T01:36:26.605Z,96.64
2023-05-05T01:36:57.145Z,97.09
2023-05-05T01:37:27.590Z,97.43
2023-05-05T01:37:58.629Z,97.24
2023-05-05T01:38:29.117Z,97.60
2023-05-05T01:39:00.140Z,97.36
2023-05-05T01:39:30.560Z,97.53
2023-05-05T01:40:01.553Z,97.36
2023-05-05T01:40:32.436Z,97.39
2023-05-05T01:41:03.319Z,97.00
2023-05-05T01:41:34.181Z,97.34
2023-05-05T01:42:05.053Z,97.19
2023-05-05T01:42:35.926Z,97.44
2023-05-05T01:43:07.002Z,97.56
2023-05-05T01:43:37.510Z,97.61
2023-05-05T01:44:08.457Z,97.95
2023-05-05T01:44:39.451Z,98.16
2023-05-05T01:45:09.965Z,98.21
2023-05-05T01:45:40.487Z,98.30
2023-05-05T01:46:11.447Z,98.21
2023-05-05T01:46:41.979Z,97.91
2023-05-05T01:47:12.853Z,97.96
2023-05-05T01:47:43.809Z,98.05
2023-05-05T01:48:14.694Z,97.66
2023-05-05T01:48:45.597Z,97.78
2023-05-05T01:49:16.485Z,97.80
2023-05-05T01:49:47.478Z,97.78
2023-05-05T01:50:18.003Z,98.02
2023-05-05T01:50:48.497Z,97.69
2023-05-05T01:51:19.426Z,97.86
2023-05-05T01:51:50.365Z,97.71
2023-05-05T01:52:21.428Z,97.61
2023-05-05T01:52:51.862Z,97.97
2023-05-05T01:53:22.749Z,98.00
2023-05-05T01:53:53.628Z,97.78
2023-05-05T01:54:24.501Z,97.66
2023-05-05T01:54:55.368Z,97.71
2023-05-05T01:55:26.252Z,97.89
2023-05-05T01:55:57.148Z,97.85
2023-05-05T01:56:28.342Z,97.85
2023-05-05T01:56:58.835Z,97.65
2023-05-05T01:57:30.013Z,97.78
2023-05-05T01:58:00.598Z,97.78
2023-05-05T01:58:31.342Z,97.89
2023-05-05T01:59:01.758Z,97.80
2023-05-05T01:59:32.953Z,97.85
2023-05-05T02:00:03.347Z,98.05
2023-05-05T02:00:34.239Z,98.15
2023-05-05T02:01:05.112Z,98.21
2023-05-05T02:01:36.002Z,98.32
2023-05-05T02:02:06.940Z,98.37
2023-05-05T02:02:38.454Z,98.71
2023-05-05T02:03:08.634Z,98.71
2023-05-05T02:03:39.403Z,98.82
2023-05-05T02:04:09.992Z,98.92
2023-05-05T02:04:40.686Z,99.19
2023-05-05T02:05:11.193Z,98.84
2023-05-05T02:05:42.330Z,99.30
2023-05-05T02:06:12.832Z,99.18
2023-05-05T02:06:43.354Z,99.19
2023-05-05T02:07:13.878Z,99.19
2023-05-05T02:07:44.282Z,98.88
2023-05-05T02:08:15.220Z,99.05
2023-05-05T02:08:46.097Z,99.32
2023-05-05T02:09:16.971Z,99.04
2023-05-05T02:09:47.839Z,98.93
2023-05-05T02:10:18.833Z,98.63
2023-05-05T02:10:49.783Z,98.59
2023-05-05T02:11:20.732Z,98.43
2023-05-05T02:11:51.673Z,98.42
2023-05-05T02:12:22.679Z,98.13
2023-05-05T02:12:53.546Z,97.86
2023-05-05T02:13:24.542Z,97.90
2023-05-05T02:13:54.989Z,97.90
2023-05-05T02:14:25.864Z,98.44
2023-05-05T02:14:56.728Z,98.24
2023-05-05T02:15:27.612Z,98.33
2023-05-05T02:15:58.521Z,98.27
2023-05-05T02:16:29.543Z,98.55
2023-05-05T02:17:00.476Z,98.43
2023-05-05T02:17:31.464Z,98.06
2023-05-05T02:18:02.085Z,97.32
2023-05-05T02:18:32.886Z,96.22
2023-05-05T02:19:03.844Z,95.32
2023-05-05T02:19:34.752Z,94.58
2023-05-05T02:20:05.732Z,93.68
2023-05-05T02:20:36.174Z,92.76
2023-05-05T02:21:07.033Z,92.13
2023-05-05T02:21:37.902Z,91.28
2023-05-05T02:22:08.779Z,90.85
2023-05-05T02:22:39.968Z,90.61
2023-05-05T02:23:10.481Z,90.05
2023-05-05T02:23:41.636Z,89.60
2023-05-05T02:24:12.140Z,89.48
2023-05-05T02:24:43.344Z,89.37
2023-05-05T02:25:13.879Z,89.00
2023-05-05T02:25:44.433Z,88.82
2023-05-05T02:26:14.829Z,88.82
2023-05-05T02:26:45.693Z,88.70
2023-05-05T02:27:16.576Z,88.59
2023-05-05T02:27:47.499Z,88.45
2023-05-05T02:28:18.417Z,88.23
2023-05-05T02:28:49.659Z,88.33
2023-05-05T02:29:20.148Z,88.18
2023-05-05T02:29:51.272Z,88.41
2023-05-05T02:30:21.785Z,88.10
2023-05-05T02:30:52.525Z,88.31
2023-05-05T02:31:23.068Z,88.21
2023-05-05T02:31:53.741Z,88.12
2023-05-05T02:32:24.242Z,88.17
2023-05-05T02:32:55.188Z,88.27
2023-05-05T02:33:26.113Z,88.18
2023-05-05T02:33:56.975Z,88.33
2023-05-05T02:34:27.898Z,88.27
2023-05-05T02:34:58.813Z,88.33
2023-05-05T02:35:29.749Z,88.08
2023-05-05T02:36:00.882Z,88.53
2023-05-05T02:36:31.373Z,88.56
2023-05-05T02:37:02.507Z,88.72
2023-05-05T02:37:33.010Z,88.76
2023-05-05T02:38:03.667Z,88.72
2023-05-05T02:38:34.195Z,88.62
2023-05-05T02:39:04.846Z,88.47
2023-05-05T02:39:35.265Z,88.53
2023-05-05T02:40:06.322Z,88.47
2023-05-05T02:40:36.868Z,88.72
2023-05-05T02:41:07.735Z,88.57
2023-05-05T02:41:38.603Z,88.27
2023-05-05T02:42:09.512Z,88.82
2023-05-05T02:42:40.514Z,88.72
2023-05-05T02:43:11.079Z,88.82
2023-05-05T02:43:41.708Z,88.64
2023-05-05T02:44:12.161Z,88.51
2023-05-05T02:44:43.168Z,88.65
2023-05-05T02:45:13.688Z,88.86
2023-05-05T02:45:44.119Z,88.59
2023-05-05T02:46:14.987Z,88.98
2023-05-05T02:46:45.951Z,88.51
2023-05-05T02:47:16.425Z,88.31
2023-05-05T02:47:47.314Z,88.57
2023-05-05T02:48:18.216Z,88.57
2023-05-05T02:48:49.089Z,88.57
2023-05-05T02:49:19.957Z,88.53
2023-05-05T02:49:50.890Z,88.51
2023-05-05T02:50:21.845Z,88.70
2023-05-05T02:50:52.778Z,88.68
2023-05-05T02:51:23.692Z,88.90
2023-05-05T02:51:54.667Z,88.66
2023-05-05T02:52:25.122Z,88.62
2023-05-05T02:52:56.010Z,88.76
2023-05-05T02:53:26.903Z,88.96
2023-05-05T02:53:57.785Z,88.68
2023-05-05T02:54:28.644Z,88.76
2023-05-05T02:54:59.510Z,88.96
2023-05-05T02:55:30.568Z,89.01
2023-05-05T02:56:01.090Z,89.13
2023-05-05T02:56:31.563Z,88.94
2023-05-05T02:57:02.523Z,88.84
2023-05-05T02:57:33.533Z,88.80
2023-05-05T02:58:04.476Z,88.96
2023-05-05T02:58:35.421Z,89.07
2023-05-05T02:59:06.289Z,89.21
2023-05-05T02:59:37.158Z,88.82
2023-05-05T03:00:08.243Z,88.88
2023-05-05T03:00:38.898Z,89.45
2023-05-05T03:01:09.830Z,90.36
2023-05-05T03:01:40.932Z,90.79
2023-05-05T03:02:11.379Z,90.67
2023-05-05T03:02:42.371Z,90.97
2023-05-05T03:03:12.983Z,90.73
2023-05-05T03:03:43.594Z,91.08
2023-05-05T03:04:14.361Z,91.53
2023-05-05T03:04:45.330Z,91.59
2023-05-05T03:05:16.213Z,91.88
2023-05-05T03:05:47.076Z,92.07
2023-05-05T03:06:17.939Z,92.17
2023-05-05T03:06:48.829Z,92.48
2023-05-05T03:07:19.706Z,92.25
2023-05-05T03:07:50.576Z,92.79
2023-05-05T03:08:21.701Z,92.27
2023-05-05T03:08:52.217Z,92.99
2023-05-05T03:09:22.933Z,93.13
2023-05-05T03:09:53.453Z,93.44
2023-05-05T03:10:24.155Z,93.87
2023-05-05T03:10:54.674Z,93.98
2023-05-05T03:11:25.347Z,94.11
2023-05-05T03:11:55.852Z,93.74
2023-05-05T03:12:26.722Z,93.98
2023-05-05T03:12:57.620Z,93.87
2023-05-05T03:13:28.559Z,93.77
2023-05-05T03:13:59.456Z,93.89
2023-05-05T03:14:32.767Z,94.30
2023-05-05T03:15:00.910Z,94.54
2023-05-05T03:15:31.835Z,94.49
2023-05-05T03:16:02.912Z,94.64
2023-05-05T03:16:33.400Z,94.54
2023-05-05T03:17:03.904Z,94.61
2023-05-05T03:17:34.938Z,94.95
2023-05-05T03:18:05.535Z,94.96
2023-05-05T03:18:35.996Z,95.20
2023-05-05T03:19:06.931Z,95.10
2023-05-05T03:19:37.827Z,95.21
2023-05-05T03:20:08.837Z,95.34
2023-05-05T03:20:39.559Z,95.18
2023-05-05T03:21:10.426Z,95.67
2023-05-05T03:21:41.286Z,95.39
2023-05-05T03:22:12.214Z,95.61
2023-05-05T03:22:43.204Z,95.29
2023-05-05T03:23:14.124Z,96.17
2023-05-05T03:23:45.121Z,95.83
2023-05-05T03:24:15.633Z,96.22
2023-05-05T03:24:46.092Z,96.12
2023-05-05T03:25:16.953Z,95.98
2023-05-05T03:25:47.851Z,96.28
2023-05-05T03:26:18.740Z,96.23
2023-05-05T03:26:49.625Z,96.72
2023-05-05T03:27:20.518Z,96.53
2023-05-05T03:27:51.370Z,96.39
2023-05-05T03:28:22.578Z,96.52
2023-05-05T03:28:53.104Z,96.65
2023-05-05T03:29:23.774Z,96.88
2023-05-05T03:29:54.233Z,96.68
2023-05-05T03:30:25.377Z,96.64
2023-05-05T03:30:55.833Z,96.58
2023-05-05T03:31:27.020Z,96.52
2023-05-05T03:31:57.434Z,97.02
2023-05-05T03:32:28.348Z,96.80
2023-05-05T03:32:59.311Z,96.90
2023-05-05T03:33:30.221Z,97.28
2023-05-05T03:34:01.128Z,97.50
2023-05-05T03:34:32.010Z,97.45
2023-05-05T03:35:02.972Z,98.05
2023-05-05T03:35:33.895Z,97.91
2023-05-05T03:36:04.842Z,98.15
2023-05-05T03:36:35.832Z,98.02
2023-05-05T03:37:06.785Z,98.11
2023-05-05T03:37:37.692Z,98.15
2023-05-05T03:38:08.581Z,98.11
2023-05-05T03:38:39.411Z,98.05
2023-05-05T03:39:10.269Z,97.96
2023-05-05T03:39:41.152Z,98.11
2023-05-05T03:40:12.009Z,98.52
2023-05-05T03:40:44.641Z,98.27
2023-05-05T03:41:13.389Z,98.12
2023-05-05T03:41:44.295Z,98.45
2023-05-05T03:42:15.242Z,98.42
2023-05-05T03:42:46.131Z,98.79
2023-05-05T03:43:17.009Z,98.67
2023-05-05T03:43:47.830Z,98.79
2023-05-05T03:44:18.739Z,98.77
2023-05-05T03:44:49.626Z,98.63
2023-05-05T03:45:20.441Z,98.74
2023-05-05T03:45:51.267Z,98.74
2023-05-05T03:46:22.173Z,98.93
2023-05-05T03:46:53.173Z,99.04
2023-05-05T03:47:24.138Z,98.99
2023-05-05T03:47:55.023Z,98.79
2023-05-05T03:48:25.949Z,99.04
2023-05-05T03:48:56.836Z,99.02
2023-05-05T03:49:27.752Z,98.69
2023-05-05T03:49:58.594Z,98.93
2023-05-05T03:50:29.427Z,98.68
2023-05-05T03:51:00.241Z,98.93
2023-05-05T03:51:31.085Z,99.17
2023-05-05T03:52:01.901Z,98.65
2023-05-05T03:52:32.750Z,98.72
2023-05-05T03:53:03.649Z,98.53
2023-05-05T03:53:34.724Z,98.49
2023-05-05T03:54:05.179Z,98.72
2023-05-05T03:54:36.265Z,98.72
2023-05-05T03:55:06.846Z,98.47
2023-05-05T03:55:37.784Z,98.52
2023-05-05T03:56:08.224Z,98.82
2023-05-05T03:56:39.044Z,98.92
2023-05-05T03:57:09.981Z,98.97
2023-05-05T03:57:40.786Z,98.93
2023-05-05T03:58:11.625Z,99.14
2023-05-05T03:58:42.554Z,98.94
2023-05-05T03:59:13.420Z,99.08
2023-05-05T03:59:44.291Z,99.23
2023-05-05T04:00:14.737Z,99.08
2023-05-05T04:00:45.887Z,98.84
2023-05-05T04:01:16.345Z,98.88
2023-05-05T04:01:47.433Z,99.07
2023-05-05T04:02:18.843Z,99.18
2023-05-05T04:02:48.638Z,99.13
2023-05-05T04:03:19.255Z,98.62
2023-05-05T04:03:49.762Z,99.13
2023-05-05T04:04:20.724Z,99.24
2023-05-05T04:04:51.587Z,98.72
2023-05-05T04:05:22.400Z,99.08
2023-05-05T04:05:53.267Z,98.79
2023-05-05T04:06:24.201Z,98.93
2023-05-05T04:06:55.343Z,99.14
2023-05-05T04:07:25.773Z,99.14
2023-05-05T04:07:56.857Z,99.64
2023-05-05T04:08:27.319Z,99.34
2023-05-05T04:08:58.400Z,99.55
2023-05-05T04:09:28.852Z,99.34
2023-05-05T04:09:59.716Z,99.63
2023-05-05T04:10:30.550Z,99.95
2023-05-05T04:11:01.393Z,99.64
2023-05-05T04:11:32.239Z,99.86
2023-05-05T04:12:03.047Z,99.84
2023-05-05T04:12:33.959Z,99.99
2023-05-05T04:13:04.923Z,99.99
2023-05-05T04:13:35.843Z,99.95
2023-05-05T04:14:06.722Z,99.99
2023-05-05T04:14:37.598Z,99.99
2023-05-05T04:15:08.539Z,99.99
2023-05-05T04:15:39.394Z,99.99
2023-05-05T04:16:10.275Z,99.99
2023-05-05T04:16:41.099Z,99.99
2023-05-05T04:17:11.953Z,99.99
2023-05-05T04:17:42.809Z,99.99
2023-05-05T04:18:13.688Z,99.99
2023-05-05T04:18:44.641Z,99.99
2023-05-05T04:19:15.534Z,99.99
2023-05-05T04:19:46.412Z,99.99
2023-05-05T04:20:17.398Z,99.99
2023-05-05T04:20:48.372Z,99.99
2023-05-05T04:21:19.250Z,99.99
2023-05-05T04:21:50.083Z,99.99
2023-05-05T04:22:20.929Z,99.99
2023-05-05T04:22:52.763Z,99.99
2023-05-05T04:23:22.331Z,99.99
2023-05-05T04:23:53.146Z,99.99
2023-05-05T04:24:23.957Z,99.99
2023-05-05T04:24:54.908Z,99.99
2023-05-05T04:25:25.731Z,99.99
2023-05-05T04:25:56.825Z,99.99
2023-05-05T04:26:27.285Z,99.99
2023-05-05T04:26:58.365Z,99.99
2023-05-05T04:27:28.817Z,99.99
2023-05-05T04:27:59.970Z,99.99
2023-05-05T04:28:30.304Z,99.99
2023-05-05T04:29:01.122Z,99.99
2023-05-05T04:29:31.982Z,99.99
2023-05-05T04:30:02.792Z,99.99
2023-05-05T04:30:33.607Z,99.99
2023-05-05T04:31:04.463Z,99.25
2023-05-05T04:31:35.434Z,97.96
2023-05-05T04:32:06.558Z,96.66
2023-05-05T04:32:37.098Z,95.67
2023-05-05T04:33:07.701Z,94.80
2023-05-05T04:33:38.161Z,93.84
2023-05-05T04:34:09.272Z,93.16
2023-05-05T04:34:39.701Z,92.58
2023-05-05T04:35:10.544Z,92.14
2023-05-05T04:35:41.369Z,91.80
2023-05-05T04:36:12.176Z,91.48
2023-05-05T04:36:43.011Z,91.16
2023-05-05T04:37:13.856Z,91.01
2023-05-05T04:37:44.721Z,91.03
2023-05-05T04:38:15.861Z,90.88
2023-05-05T04:38:46.352Z,90.74
2023-05-05T04:39:17.008Z,90.25
2023-05-05T04:39:47.455Z,90.23
2023-05-05T04:40:18.627Z,90.45
2023-05-05T04:40:49.097Z,90.06
2023-05-05T04:41:20.238Z,90.41
2023-05-05T04:41:50.594Z,90.33
2023-05-05T04:42:21.417Z,90.31
2023-05-05T04:42:52.261Z,90.39
2023-05-05T04:43:23.102Z,90.25
2023-05-05T04:43:53.957Z,89.82
2023-05-05T04:44:24.809Z,90.11
2023-05-05T04:44:55.870Z,90.15
2023-05-05T04:45:26.454Z,89.11
2023-05-05T04:45:56.911Z,88.57
2023-05-05T04:46:28.003Z,87.85
2023-05-05T04:46:58.518Z,87.76
2023-05-05T04:47:29.119Z,88.17
2023-05-05T04:47:59.701Z,88.06
2023-05-05T04:48:30.487Z,88.64
2023-05-05T04:49:00.889Z,89.33
2023-05-05T04:49:31.731Z,90.06
2023-05-05T04:50:02.573Z,90.56
2023-05-05T04:50:33.437Z,91.67
2023-05-05T04:51:04.260Z,92.61
2023-05-05T04:51:35.118Z,92.97
2023-05-05T04:52:06.128Z,93.21
2023-05-05T04:52:36.838Z,93.46
2023-05-05T04:53:07.231Z,93.59
2023-05-05T04:53:38.319Z,94.21
2023-05-05T04:54:08.782Z,94.45
2023-05-05T04:54:39.873Z,94.27
2023-05-05T04:55:10.326Z,94.85
2023-05-05T04:55:41.335Z,95.36
2023-05-05T04:56:11.666Z,95.83
2023-05-05T04:56:42.523Z,96.23
2023-05-05T04:57:13.382Z,96.41
2023-05-05T04:57:44.225Z,96.87
2023-05-05T04:58:15.041Z,96.82
2023-05-05T04:58:45.895Z,97.00
2023-05-05T04:59:16.773Z,97.15
2023-05-05T04:59:47.884Z,97.16
2023-05-05T05:00:18.355Z,97.31
2023-05-05T05:00:49.439Z,97.45
2023-05-05T05:01:19.989Z,96.98
2023-05-05T05:01:50.689Z,97.12
2023-05-05T05:02:21.282Z,97.74
2023-05-05T05:02:51.849Z,97.44
2023-05-05T05:03:22.287Z,97.32
2023-05-05T05:03:52.756Z,96.77
2023-05-05T05:04:23.644Z,96.87
2023-05-05T05:04:54.449Z,96.51
2023-05-05T05:05:25.261Z,96.88
2023-05-05T05:05:56.113Z,96.82
2023-05-05T05:06:26.984Z,96.92
2023-05-05T05:06:59.224Z,96.94
2023-05-05T05:07:28.887Z,96.72
2023-05-05T05:07:59.875Z,96.40
2023-05-05T05:08:30.829Z,96.15
2023-05-05T05:09:01.766Z,96.20
2023-05-05T05:09:32.661Z,96.44
2023-05-05T05:10:03.484Z,96.75
2023-05-05T05:10:34.317Z,96.56
2023-05-05T05:11:05.167Z,96.65
2023-05-05T05:11:36.052Z,96.37
2023-05-05T05:12:06.946Z,96.55
2023-05-05T05:12:37.878Z,96.60
2023-05-05T05:13:09.624Z,96.50
2023-05-05T05:13:39.621Z,96.60
2023-05-05T05:14:10.486Z,96.45
2023-05-05T05:14:41.377Z,96.48
2023-05-05T05:15:12.255Z,96.28
2023-05-05T05:15:43.094Z,96.30
2023-05-05T05:16:13.991Z,96.10
2023-05-05T05:16:44.984Z,96.19
2023-05-05T05:17:15.885Z,96.35
2023-05-05T05:17:46.711Z,96.34
2023-05-05T05:18:17.616Z,96.15
2023-05-05T05:18:48.697Z,97.17
2023-05-05T05:19:19.156Z,97.96
2023-05-05T05:19:50.239Z,97.62
2023-05-05T05:20:20.678Z,97.70
2023-05-05T05:20:51.752Z,96.54
2023-05-05T05:21:22.327Z,96.03
2023-05-05T05:21:52.676Z,95.20
2023-05-05T05:22:23.515Z,93.99
2023-05-05T05:22:54.348Z,94.02
2023-05-05T05:23:25.199Z,93.65
2023-05-05T05:23:56.040Z,92.64
2023-05-05T05:24:26.852Z,91.92
2023-05-05T05:24:58.062Z,91.44
2023-05-05T05:25:28.504Z,90.60
2023-05-05T05:25:59.639Z,89.94
2023-05-05T05:26:30.148Z,89.18
2023-05-05T05:27:01.217Z,89.20
2023-05-05T05:27:31.681Z,88.68
2023-05-05T05:28:10.037Z,88.29
2023-05-05T05:28:34.065Z,88.17
2023-05-05T05:29:03.905Z,88.23
2023-05-05T05:29:34.736Z,88.14
2023-05-05T05:30:05.734Z,88.53
2023-05-05T05:30:36.324Z,88.35
2023-05-05T05:31:07.212Z,88.20
2023-05-05T05:31:38.256Z,88.29
2023-05-05T05:32:09.056Z,88.12
2023-05-05T05:32:39.765Z,87.84
2023-05-05T05:33:10.477Z,87.63
2023-05-05T05:33:40.955Z,87.53
2023-05-05T05:34:12.931Z,87.41
2023-05-05T05:34:42.583Z,87.12
2023-05-05T05:35:13.404Z,86.59
2023-05-05T05:35:44.225Z,86.71
2023-05-05T05:36:15.056Z,86.41
2023-05-05T05:36:45.914Z,86.39
2023-05-05T05:37:16.748Z,85.59
2023-05-05T05:37:47.594Z,85.69
2023-05-05T05:38:18.806Z,85.94
2023-05-05T05:38:49.241Z,85.45
2023-05-05T05:39:20.403Z,84.47
2023-05-05T05:39:50.878Z,83.82
2023-05-05T05:40:22.024Z,82.79
2023-05-05T05:40:52.502Z,82.38
2023-05-05T05:41:23.575Z,81.33
2023-05-05T05:41:53.904Z,81.17
2023-05-05T05:42:24.760Z,80.49
2023-05-05T05:42:55.670Z,81.26
2023-05-05T05:43:26.532Z,81.30
2023-05-05T05:43:58.220Z,81.20
2023-05-05T05:44:28.088Z,81.16
2023-05-05T05:44:58.953Z,81.33
2023-05-05T05:45:29.911Z,81.26
2023-05-05T05:46:00.846Z,80.72
2023-05-05T05:46:31.832Z,80.68
2023-05-05T05:47:02.311Z,80.66
2023-05-05T05:47:33.308Z,80.58
2023-05-05T05:48:04.167Z,80.52
2023-05-05T05:48:35.034Z,80.65
2023-05-05T05:49:05.864Z,81.06
2023-05-05T05:49:36.707Z,80.69
2023-05-05T05:50:07.911Z,80.10
2023-05-05T05:50:38.081Z,79.90
2023-05-05T05:51:08.926Z,80.29
2023-05-05T05:51:39.823Z,80.11
2023-05-05T05:52:10.993Z,80.00
2023-05-05T05:52:41.454Z,80.31
2023-05-05T05:53:12.607Z,80.21
2023-05-05T05:53:43.056Z,80.33
2023-05-05T05:54:14.155Z,79.66
2023-05-05T05:54:44.483Z,79.72
2023-05-05T05:55:15.349Z,80.00
2023-05-05T05:55:46.249Z,79.41
2023-05-05T05:56:17.114Z,79.63
2023-05-05T05:56:47.947Z,79.66
2023-05-05T05:57:18.796Z,79.68
2023-05-05T05:57:49.765Z,79.50
2023-05-05T05:58:20.977Z,79.46
2023-05-05T05:58:51.433Z,79.27
2023-05-05T05:59:22.564Z,79.12
2023-05-05T05:59:53.022Z,78.99
2023-05-05T06:00:24.529Z,78.62
2023-05-05T06:00:54.519Z,77.82
2023-05-05T06:01:25.331Z,77.22
2023-05-05T06:01:56.181Z,76.40
2023-05-05T06:02:27.094Z,76.10
2023-05-05T06:02:57.866Z,75.66
2023-05-05T06:03:28.372Z,75.73
2023-05-05T06:03:59.289Z,76.14
2023-05-05T06:04:30.282Z,76.40
2023-05-05T06:05:01.179Z,76.53
2023-05-05T06:05:32.097Z,77.59
2023-05-05T06:06:03.054Z,77.42
2023-05-05T06:06:33.963Z,78.20
2023-05-05T06:07:04.863Z,78.38
2023-05-05T06:07:35.692Z,78.00
2023-05-05T06:08:06.548Z,78.44
2023-05-05T06:08:37.386Z,78.23
2023-05-05T06:09:08.240Z,78.33
2023-05-05T06:09:39.061Z,77.42
2023-05-05T06:10:25.785Z,77.36
2023-05-05T06:10:42.221Z,77.48
2023-05-05T06:11:11.632Z,77.01
2023-05-05T06:11:42.798Z,76.20
2023-05-05T06:12:13.281Z,76.44
2023-05-05T06:12:44.457Z,76.74
2023-05-05T06:13:15.036Z,77.12
2023-05-05T06:13:45.455Z,77.34
2023-05-05T06:14:18.088Z,77.36
2023-05-05T06:14:47.205Z,77.80
2023-05-05T06:15:18.044Z,77.94
2023-05-05T06:15:48.970Z,77.63
2023-05-05T06:16:19.842Z,77.53
2023-05-05T06:16:50.764Z,77.51
2023-05-05T06:17:21.654Z,77.56
2023-05-05T06:17:52.618Z,77.52
2023-05-05T06:18:23.200Z,77.51
2023-05-05T06:18:54.267Z,77.18
2023-05-05T06:19:24.715Z,76.57
2023-05-05T06:19:55.536Z,76.51
2023-05-05T06:20:26.365Z,76.31
2023-05-05T06:20:57.207Z,76.13
2023-05-05T06:21:28.060Z,76.40
2023-05-05T06:21:58.901Z,76.87
2023-05-05T06:22:29.767Z,76.40
2023-05-05T06:23:00.789Z,76.51
2023-05-05T06:23:31.212Z,76.78
2023-05-05T06:24:02.143Z,77.01
2023-05-05T06:24:33.019Z,76.64
2023-05-05T06:25:03.890Z,77.15
2023-05-05T06:25:34.806Z,77.45
2023-05-05T06:26:05.708Z,77.53
2023-05-05T06:26:36.546Z,77.42
2023-05-05T06:27:07.380Z,77.48
2023-05-05T06:27:38.220Z,77.08
2023-05-05T06:28:09.080Z,77.08
2023-05-05T06:28:40.721Z,77.41
2023-05-05T06:29:12.427Z,76.91
2023-05-05T06:29:41.507Z,77.08
2023-05-05T06:30:12.469Z,76.57
2023-05-05T06:30:43.396Z,76.84
2023-05-05T06:31:14.330Z,76.71
2023-05-05T06:31:45.326Z,76.23
2023-05-05T06:32:16.202Z,76.51
2023-05-05T06:32:47.019Z,76.51
2023-05-05T06:33:17.884Z,76.50
2023-05-05T06:33:48.766Z,76.40
2023-05-05T06:34:19.576Z,76.27
2023-05-05T06:34:50.446Z,76.64
2023-05-05T06:35:21.346Z,75.92
2023-05-05T06:35:52.312Z,76.03
2023-05-05T06:36:23.313Z,75.73
2023-05-05T06:36:54.304Z,75.28